This is the latest recevied weather packets stored in our database for station/object KQ4TV-2. If no packets are shown the sender has not sent any weather packets the latest 10 day(s).
| Time | Temp. | Humidity | Pressure | Rain* | Wind** | Luminosity | Snow |
|---|---|---|---|---|---|---|---|
| 1777787321 | 6.67° C | 96% | - | 0 mm | - | - | - |
| 1777785508 | 6.67° C | 96% | - | 0 mm | - | - | - |
| 1777784662 | 6.67° C | 96% | - | 0 mm | - | - | - |
| 1777781762 | 7.22° C | 95% | - | 0 mm | - | - | - |
| 1777781641 | 7.22° C | 95% | - | 0 mm | - | - | - |
| 1777780191 | 7.78° C | 95% | - | 0 mm | - | - | - |
| 1777773544 | 8.89° C | 89% | - | 0 mm | - | - | - |
| 1777773181 | 8.89° C | 88% | - | 0 mm | - | - | - |
| 1777772577 | 9.44° C | 88% | - | 0 mm | - | - | - |
| 1777768951 | 11.11° C | 81% | - | 0 mm | - | - | - |
| 1777768831 | 11.11° C | 81% | - | 0 mm | - | - | - |
| 1777768710 | 11.11° C | 81% | - | 0 mm | - | - | - |
| 1777767743 | 11.11° C | 79% | - | 0 mm | - | - | - |
| 1777767501 | 11.11° C | 79% | - | 0 mm | - | - | - |
| 1777766776 | 11.67° C | 78% | - | 0 mm | - | - | - |
| 1777766690 | 11.67° C | 78% | - | 0 mm | - | - | - |
| 1777766655 | 11.67° C | 78% | - | 0 mm | - | - | - |
| 1777635295 | 7.22° C | 96% | - | 0 mm | - | - | - |
| 1777631307 | 7.22° C | 95% | - | 0 mm | - | - | - |
| 1777627560 | 8.33° C | 95% | - | 0 mm | - | - | - |
| 1777627439 | 8.33° C | 95% | - | 0 mm | - | - | - |
| 1777626344 | 8.33° C | 94% | - | 0 mm | - | - | - |
| 1777626231 | 8.33° C | 94% | - | 0 mm | - | - | - |
| 1777625989 | 8.33° C | 94% | - | 0 mm | - | - | - |
| 1777621034 | 8.89° C | 90% | - | 0 mm | - | - | - |
* Rain since midnight (hover to see other rain measurements)
** Current wind speed in m/s (hover to see current wind gust speed)